sensor_id;sensor_type;location;lat;lon;timestamp;P1;durP1;ratioP1;P2;durP2;ratioP2
61962;SDS011;47927;42.646;23.096;2022-10-16T00:01:19;10.00;;;3.15;;
61962;SDS011;47927;42.646;23.096;2022-10-16T00:03:47;5.22;;;2.85;;
61962;SDS011;47927;42.646;23.096;2022-10-16T00:06:14;10.02;;;2.55;;
61962;SDS011;47927;42.646;23.096;2022-10-16T00:08:42;7.80;;;3.17;;
61962;SDS011;47927;42.646;23.096;2022-10-16T00:11:12;8.75;;;2.55;;
61962;SDS011;47927;42.646;23.096;2022-10-16T00:13:47;4.38;;;2.30;;
61962;SDS011;47927;42.646;23.096;2022-10-16T00:16:14;6.43;;;3.15;;
61962;SDS011;47927;42.646;23.096;2022-10-16T00:18:41;5.50;;;2.80;;
61962;SDS011;47927;42.646;23.096;2022-10-16T00:21:11;8.57;;;2.95;;
61962;SDS011;47927;42.646;23.096;2022-10-16T00:23:56;6.90;;;2.33;;
61962;SDS011;47927;42.646;23.096;2022-10-16T00:26:24;4.45;;;2.13;;
61962;SDS011;47927;42.646;23.096;2022-10-16T00:28:51;5.57;;;2.65;;
61962;SDS011;47927;42.646;23.096;2022-10-16T00:31:17;5.95;;;2.80;;
61962;SDS011;47927;42.646;23.096;2022-10-16T00:33:45;6.00;;;2.67;;
61962;SDS011;47927;42.646;23.096;2022-10-16T00:36:12;5.15;;;3.22;;
61962;SDS011;47927;42.646;23.096;2022-10-16T00:38:39;5.13;;;2.40;;
61962;SDS011;47927;42.646;23.096;2022-10-16T00:41:06;10.65;;;3.00;;
61962;SDS011;47927;42.646;23.096;2022-10-16T00:51:29;11.52;;;3.13;;
61962;SDS011;47927;42.646;23.096;2022-10-16T00:54:06;5.93;;;2.72;;
61962;SDS011;47927;42.646;23.096;2022-10-16T00:56:35;4.57;;;2.10;;
61962;SDS011;47927;42.646;23.096;2022-10-16T00:59:02;4.72;;;2.97;;
61962;SDS011;47927;42.646;23.096;2022-10-16T01:03:56;4.07;;;2.45;;
61962;SDS011;47927;42.646;23.096;2022-10-16T01:06:29;6.10;;;2.22;;
61962;SDS011;47927;42.646;23.096;2022-10-16T01:11:38;8.43;;;2.85;;
61962;SDS011;47927;42.646;23.096;2022-10-16T01:14:22;6.35;;;2.53;;
61962;SDS011;47927;42.646;23.096;2022-10-16T01:17:06;5.95;;;3.30;;
61962;SDS011;47927;42.646;23.096;2022-10-16T01:28:11;4.90;;;2.65;;
61962;SDS011;47927;42.646;23.096;2022-10-16T01:30:40;5.53;;;2.65;;
61962;SDS011;47927;42.646;23.096;2022-10-16T01:33:10;5.72;;;2.60;;
61962;SDS011;47927;42.646;23.096;2022-10-16T01:35:42;5.88;;;2.80;;
61962;SDS011;47927;42.646;23.096;2022-10-16T01:38:19;6.15;;;3.05;;
61962;SDS011;47927;42.646;23.096;2022-10-16T01:40:52;6.32;;;3.13;;
61962;SDS011;47927;42.646;23.096;2022-10-16T01:43:33;5.20;;;2.55;;
61962;SDS011;47927;42.646;23.096;2022-10-16T01:46:04;4.60;;;2.17;;
61962;SDS011;47927;42.646;23.096;2022-10-16T01:48:30;4.82;;;2.40;;
61962;SDS011;47927;42.646;23.096;2022-10-16T01:51:32;6.30;;;3.08;;
61962;SDS011;47927;42.646;23.096;2022-10-16T01:53:53;4.28;;;2.50;;
61962;SDS011;47927;42.646;23.096;2022-10-16T01:56:21;6.10;;;2.75;;
61962;SDS011;47927;42.646;23.096;2022-10-16T01:58:49;5.13;;;2.80;;
61962;SDS011;47927;42.646;23.096;2022-10-16T02:01:20;3.60;;;1.83;;
61962;SDS011;47927;42.646;23.096;2022-10-16T02:03:48;3.38;;;1.83;;
61962;SDS011;47927;42.646;23.096;2022-10-16T02:06:19;4.68;;;2.67;;
61962;SDS011;47927;42.646;23.096;2022-10-16T02:08:45;4.40;;;2.30;;
61962;SDS011;47927;42.646;23.096;2022-10-16T02:11:11;5.10;;;2.60;;
61962;SDS011;47927;42.646;23.096;2022-10-16T02:13:39;5.10;;;2.65;;
61962;SDS011;47927;42.646;23.096;2022-10-16T02:16:10;6.35;;;2.88;;
61962;SDS011;47927;42.646;23.096;2022-10-16T02:18:37;4.35;;;2.05;;
61962;SDS011;47927;42.646;23.096;2022-10-16T02:26:51;5.18;;;3.00;;
61962;SDS011;47927;42.646;23.096;2022-10-16T02:29:24;8.50;;;2.70;;
61962;SDS011;47927;42.646;23.096;2022-10-16T02:31:56;4.60;;;2.20;;
61962;SDS011;47927;42.646;23.096;2022-10-16T02:34:26;7.90;;;3.40;;
61962;SDS011;47927;42.646;23.096;2022-10-16T02:36:54;5.22;;;2.70;;
61962;SDS011;47927;42.646;23.096;2022-10-16T02:39:21;6.75;;;3.47;;
61962;SDS011;47927;42.646;23.096;2022-10-16T02:41:47;4.28;;;2.42;;
61962;SDS011;47927;42.646;23.096;2022-10-16T02:44:13;6.47;;;2.92;;
61962;SDS011;47927;42.646;23.096;2022-10-16T02:46:38;6.35;;;3.00;;
61962;SDS011;47927;42.646;23.096;2022-10-16T02:49:04;5.97;;;2.78;;
61962;SDS011;47927;42.646;23.096;2022-10-16T02:51:30;6.10;;;2.60;;
61962;SDS011;47927;42.646;23.096;2022-10-16T02:53:55;10.30;;;2.95;;
61962;SDS011;47927;42.646;23.096;2022-10-16T02:56:21;5.47;;;2.75;;
61962;SDS011;47927;42.646;23.096;2022-10-16T02:58:46;8.75;;;3.20;;
61962;SDS011;47927;42.646;23.096;2022-10-16T03:01:12;6.50;;;3.05;;
61962;SDS011;47927;42.646;23.096;2022-10-16T03:03:39;5.75;;;2.47;;
61962;SDS011;47927;42.646;23.096;2022-10-16T03:06:05;7.15;;;2.80;;
61962;SDS011;47927;42.646;23.096;2022-10-16T03:08:31;6.38;;;3.00;;
61962;SDS011;47927;42.646;23.096;2022-10-16T03:10:56;5.25;;;2.85;;
61962;SDS011;47927;42.646;23.096;2022-10-16T03:13:22;6.20;;;2.63;;
61962;SDS011;47927;42.646;23.096;2022-10-16T03:15:48;6.47;;;3.00;;
61962;SDS011;47927;42.646;23.096;2022-10-16T03:18:13;5.75;;;3.15;;
61962;SDS011;47927;42.646;23.096;2022-10-16T03:20:39;7.60;;;3.65;;
61962;SDS011;47927;42.646;23.096;2022-10-16T03:23:05;5.93;;;3.05;;
61962;SDS011;47927;42.646;23.096;2022-10-16T03:25:31;6.65;;;3.65;;
61962;SDS011;47927;42.646;23.096;2022-10-16T03:27:57;10.88;;;3.22;;
61962;SDS011;47927;42.646;23.096;2022-10-16T03:30:22;5.00;;;2.97;;
61962;SDS011;47927;42.646;23.096;2022-10-16T03:32:48;6.40;;;3.13;;
61962;SDS011;47927;42.646;23.096;2022-10-16T03:35:19;9.82;;;4.03;;
61962;SDS011;47927;42.646;23.096;2022-10-16T03:37:45;8.90;;;3.53;;
61962;SDS011;47927;42.646;23.096;2022-10-16T03:40:10;9.48;;;3.13;;
61962;SDS011;47927;42.646;23.096;2022-10-16T03:42:36;6.47;;;3.35;;
61962;SDS011;47927;42.646;23.096;2022-10-16T03:45:02;9.25;;;3.47;;
61962;SDS011;47927;42.646;23.096;2022-10-16T03:47:28;6.72;;;3.47;;
61962;SDS011;47927;42.646;23.096;2022-10-16T03:49:53;10.20;;;3.42;;
61962;SDS011;47927;42.646;23.096;2022-10-16T03:52:19;11.02;;;4.10;;
61962;SDS011;47927;42.646;23.096;2022-10-16T03:54:44;7.50;;;3.80;;
61962;SDS011;47927;42.646;23.096;2022-10-16T03:57:10;7.63;;;3.28;;
61962;SDS011;47927;42.646;23.096;2022-10-16T03:59:35;11.27;;;4.07;;
61962;SDS011;47927;42.646;23.096;2022-10-16T04:02:01;7.80;;;3.55;;
61962;SDS011;47927;42.646;23.096;2022-10-16T04:04:26;6.65;;;3.67;;
61962;SDS011;47927;42.646;23.096;2022-10-16T04:06:52;6.47;;;3.47;;
61962;SDS011;47927;42.646;23.096;2022-10-16T04:09:17;7.88;;;4.30;;
61962;SDS011;47927;42.646;23.096;2022-10-16T04:11:43;9.90;;;4.00;;
61962;SDS011;47927;42.646;23.096;2022-10-16T04:14:08;6.28;;;3.60;;
61962;SDS011;47927;42.646;23.096;2022-10-16T04:16:34;6.80;;;3.75;;
61962;SDS011;47927;42.646;23.096;2022-10-16T04:19:00;6.10;;;3.17;;
61962;SDS011;47927;42.646;23.096;2022-10-16T04:21:25;6.50;;;3.22;;
61962;SDS011;47927;42.646;23.096;2022-10-16T04:23:51;6.10;;;3.35;;
61962;SDS011;47927;42.646;23.096;2022-10-16T04:26:16;6.20;;;2.78;;
61962;SDS011;47927;42.646;23.096;2022-10-16T04:28:42;11.23;;;3.55;;
61962;SDS011;47927;42.646;23.096;2022-10-16T04:31:08;4.68;;;3.05;;
61962;SDS011;47927;42.646;23.096;2022-10-16T04:33:34;10.13;;;3.53;;
61962;SDS011;47927;42.646;23.096;2022-10-16T04:36:00;5.55;;;3.28;;
61962;SDS011;47927;42.646;23.096;2022-10-16T04:38:26;8.00;;;3.35;;
61962;SDS011;47927;42.646;23.096;2022-10-16T04:40:52;7.82;;;3.85;;
61962;SDS011;47927;42.646;23.096;2022-10-16T04:43:18;8.80;;;3.47;;
61962;SDS011;47927;42.646;23.096;2022-10-16T04:45:44;5.85;;;3.28;;
61962;SDS011;47927;42.646;23.096;2022-10-16T04:48:09;7.68;;;4.10;;
61962;SDS011;47927;42.646;23.096;2022-10-16T04:50:35;6.15;;;3.00;;
61962;SDS011;47927;42.646;23.096;2022-10-16T04:53:04;6.20;;;2.92;;
61962;SDS011;47927;42.646;23.096;2022-10-16T04:55:30;6.15;;;3.10;;
61962;SDS011;47927;42.646;23.096;2022-10-16T04:57:56;7.32;;;3.00;;
61962;SDS011;47927;42.646;23.096;2022-10-16T05:00:21;5.97;;;3.13;;
61962;SDS011;47927;42.646;23.096;2022-10-16T05:02:47;5.60;;;3.22;;
61962;SDS011;47927;42.646;23.096;2022-10-16T05:05:14;5.53;;;2.85;;
61962;SDS011;47927;42.646;23.096;2022-10-16T05:07:40;5.53;;;3.08;;
61962;SDS011;47927;42.646;23.096;2022-10-16T05:10:05;6.15;;;3.78;;
61962;SDS011;47927;42.646;23.096;2022-10-16T05:12:31;9.70;;;3.53;;
61962;SDS011;47927;42.646;23.096;2022-10-16T05:14:59;7.40;;;3.63;;
61962;SDS011;47927;42.646;23.096;2022-10-16T05:17:25;7.63;;;4.07;;
61962;SDS011;47927;42.646;23.096;2022-10-16T05:19:51;9.25;;;3.75;;
61962;SDS011;47927;42.646;23.096;2022-10-16T05:22:17;6.43;;;3.70;;
61962;SDS011;47927;42.646;23.096;2022-10-16T05:24:42;6.53;;;3.55;;
61962;SDS011;47927;42.646;23.096;2022-10-16T05:27:08;7.22;;;3.17;;
61962;SDS011;47927;42.646;23.096;2022-10-16T05:29:34;5.22;;;3.30;;
61962;SDS011;47927;42.646;23.096;2022-10-16T05:32:00;5.47;;;3.13;;
61962;SDS011;47927;42.646;23.096;2022-10-16T05:34:26;7.18;;;3.80;;
61962;SDS011;47927;42.646;23.096;2022-10-16T05:36:51;6.40;;;3.53;;
61962;SDS011;47927;42.646;23.096;2022-10-16T05:39:17;4.35;;;3.20;;
61962;SDS011;47927;42.646;23.096;2022-10-16T05:41:43;19.50;;;5.82;;
61962;SDS011;47927;42.646;23.096;2022-10-16T05:44:08;11.52;;;5.95;;
61962;SDS011;47927;42.646;23.096;2022-10-16T05:46:34;13.38;;;6.28;;
61962;SDS011;47927;42.646;23.096;2022-10-16T05:49:00;8.27;;;5.00;;
61962;SDS011;47927;42.646;23.096;2022-10-16T05:51:25;10.57;;;6.15;;
61962;SDS011;47927;42.646;23.096;2022-10-16T05:53:51;13.68;;;6.50;;
61962;SDS011;47927;42.646;23.096;2022-10-16T05:56:17;11.70;;;6.30;;
61962;SDS011;47927;42.646;23.096;2022-10-16T05:58:43;10.45;;;6.07;;
61962;SDS011;47927;42.646;23.096;2022-10-16T06:01:13;13.77;;;6.60;;
61962;SDS011;47927;42.646;23.096;2022-10-16T06:03:40;11.95;;;7.95;;
61962;SDS011;47927;42.646;23.096;2022-10-16T06:06:10;10.48;;;5.78;;
61962;SDS011;47927;42.646;23.096;2022-10-16T06:08:37;15.68;;;6.53;;
61962;SDS011;47927;42.646;23.096;2022-10-16T06:11:04;11.00;;;7.57;;
61962;SDS011;47927;42.646;23.096;2022-10-16T06:13:31;14.55;;;7.97;;
61962;SDS011;47927;42.646;23.096;2022-10-16T06:15:58;10.75;;;6.90;;
61962;SDS011;47927;42.646;23.096;2022-10-16T06:18:25;10.45;;;6.85;;
61962;SDS011;47927;42.646;23.096;2022-10-16T06:20:51;11.95;;;7.82;;
61962;SDS011;47927;42.646;23.096;2022-10-16T06:23:17;12.07;;;6.80;;
61962;SDS011;47927;42.646;23.096;2022-10-16T06:25:43;15.15;;;7.03;;
61962;SDS011;47927;42.646;23.096;2022-10-16T06:28:08;13.15;;;7.43;;
61962;SDS011;47927;42.646;23.096;2022-10-16T06:30:34;11.68;;;7.10;;
61962;SDS011;47927;42.646;23.096;2022-10-16T06:32:59;11.80;;;7.22;;
61962;SDS011;47927;42.646;23.096;2022-10-16T06:35:25;14.10;;;6.57;;
61962;SDS011;47927;42.646;23.096;2022-10-16T06:37:52;11.65;;;6.50;;
61962;SDS011;47927;42.646;23.096;2022-10-16T06:40:18;16.20;;;6.05;;
61962;SDS011;47927;42.646;23.096;2022-10-16T06:42:43;17.30;;;6.65;;
61962;SDS011;47927;42.646;23.096;2022-10-16T06:45:10;17.23;;;6.07;;
61962;SDS011;47927;42.646;23.096;2022-10-16T06:47:35;18.25;;;6.88;;
61962;SDS011;47927;42.646;23.096;2022-10-16T06:50:01;14.25;;;6.90;;
61962;SDS011;47927;42.646;23.096;2022-10-16T06:52:28;16.40;;;7.10;;
61962;SDS011;47927;42.646;23.096;2022-10-16T06:54:54;12.73;;;5.97;;
61962;SDS011;47927;42.646;23.096;2022-10-16T06:57:19;16.33;;;7.75;;
61962;SDS011;47927;42.646;23.096;2022-10-16T06:59:45;13.35;;;6.30;;
61962;SDS011;47927;42.646;23.096;2022-10-16T07:02:10;15.48;;;8.68;;
61962;SDS011;47927;42.646;23.096;2022-10-16T07:04:36;17.85;;;8.23;;
61962;SDS011;47927;42.646;23.096;2022-10-16T07:07:02;12.65;;;6.45;;
61962;SDS011;47927;42.646;23.096;2022-10-16T07:09:27;13.45;;;5.90;;
61962;SDS011;47927;42.646;23.096;2022-10-16T07:11:53;13.70;;;6.65;;
61962;SDS011;47927;42.646;23.096;2022-10-16T07:14:19;19.05;;;6.93;;
61962;SDS011;47927;42.646;23.096;2022-10-16T07:16:46;16.45;;;7.05;;
61962;SDS011;47927;42.646;23.096;2022-10-16T07:19:12;17.33;;;7.43;;
61962;SDS011;47927;42.646;23.096;2022-10-16T07:21:40;15.82;;;7.10;;
61962;SDS011;47927;42.646;23.096;2022-10-16T07:24:07;18.45;;;7.28;;
61962;SDS011;47927;42.646;23.096;2022-10-16T07:26:37;17.00;;;6.80;;
61962;SDS011;47927;42.646;23.096;2022-10-16T07:29:04;14.73;;;6.75;;
61962;SDS011;47927;42.646;23.096;2022-10-16T07:31:31;16.90;;;6.97;;
61962;SDS011;47927;42.646;23.096;2022-10-16T07:33:58;16.08;;;6.85;;
61962;SDS011;47927;42.646;23.096;2022-10-16T07:36:24;12.60;;;6.25;;
61962;SDS011;47927;42.646;23.096;2022-10-16T07:38:50;19.10;;;7.18;;
61962;SDS011;47927;42.646;23.096;2022-10-16T07:41:17;13.63;;;6.15;;
61962;SDS011;47927;42.646;23.096;2022-10-16T07:43:47;17.13;;;7.07;;
61962;SDS011;47927;42.646;23.096;2022-10-16T07:46:18;16.02;;;6.55;;
61962;SDS011;47927;42.646;23.096;2022-10-16T07:48:44;12.30;;;6.30;;
61962;SDS011;47927;42.646;23.096;2022-10-16T07:51:13;14.18;;;5.78;;
61962;SDS011;47927;42.646;23.096;2022-10-16T07:53:40;18.08;;;6.05;;
61962;SDS011;47927;42.646;23.096;2022-10-16T07:56:06;11.93;;;5.80;;
61962;SDS011;47927;42.646;23.096;2022-10-16T07:58:32;15.98;;;6.20;;
61962;SDS011;47927;42.646;23.096;2022-10-16T08:01:02;16.88;;;6.07;;
61962;SDS011;47927;42.646;23.096;2022-10-16T08:03:29;16.33;;;5.82;;
61962;SDS011;47927;42.646;23.096;2022-10-16T08:05:56;10.18;;;5.93;;
61962;SDS011;47927;42.646;23.096;2022-10-16T08:08:22;6.20;;;3.78;;
61962;SDS011;47927;42.646;23.096;2022-10-16T08:10:48;15.30;;;6.10;;
61962;SDS011;47927;42.646;23.096;2022-10-16T08:13:13;8.88;;;4.38;;
61962;SDS011;47927;42.646;23.096;2022-10-16T08:15:40;10.30;;;4.07;;
61962;SDS011;47927;42.646;23.096;2022-10-16T08:18:10;12.10;;;5.88;;
61962;SDS011;47927;42.646;23.096;2022-10-16T08:20:37;5.82;;;3.47;;
61962;SDS011;47927;42.646;23.096;2022-10-16T08:23:03;5.50;;;3.42;;
61962;SDS011;47927;42.646;23.096;2022-10-16T08:25:29;6.28;;;3.50;;
61962;SDS011;47927;42.646;23.096;2022-10-16T08:27:55;5.00;;;3.13;;
61962;SDS011;47927;42.646;23.096;2022-10-16T08:30:21;12.52;;;3.67;;
61962;SDS011;47927;42.646;23.096;2022-10-16T08:32:48;4.25;;;3.03;;
61962;SDS011;47927;42.646;23.096;2022-10-16T08:35:14;6.07;;;3.45;;
61962;SDS011;47927;42.646;23.096;2022-10-16T08:37:40;6.55;;;4.30;;
61962;SDS011;47927;42.646;23.096;2022-10-16T08:40:06;7.10;;;4.18;;
61962;SDS011;47927;42.646;23.096;2022-10-16T08:43:03;7.53;;;4.78;;
61962;SDS011;47927;42.646;23.096;2022-10-16T08:50:55;5.35;;;4.03;;
61962;SDS011;47927;42.646;23.096;2022-10-16T08:53:25;6.15;;;3.55;;
61962;SDS011;47927;42.646;23.096;2022-10-16T08:55:55;5.97;;;3.78;;
61962;SDS011;47927;42.646;23.096;2022-10-16T08:58:22;7.93;;;4.50;;
61962;SDS011;47927;42.646;23.096;2022-10-16T09:00:55;6.13;;;3.70;;
61962;SDS011;47927;42.646;23.096;2022-10-16T09:03:32;5.05;;;3.60;;
61962;SDS011;47927;42.646;23.096;2022-10-16T09:22:52;6.60;;;4.15;;
61962;SDS011;47927;42.646;23.096;2022-10-16T09:25:41;7.32;;;4.57;;
61962;SDS011;47927;42.646;23.096;2022-10-16T09:28:09;6.78;;;4.45;;
61962;SDS011;47927;42.646;23.096;2022-10-16T09:30:35;5.10;;;3.78;;
61962;SDS011;47927;42.646;23.096;2022-10-16T09:33:02;8.93;;;4.03;;
61962;SDS011;47927;42.646;23.096;2022-10-16T09:35:39;7.18;;;3.38;;
61962;SDS011;47927;42.646;23.096;2022-10-16T09:38:07;7.85;;;3.90;;
61962;SDS011;47927;42.646;23.096;2022-10-16T09:40:34;6.95;;;3.67;;
61962;SDS011;47927;42.646;23.096;2022-10-16T09:43:21;5.53;;;2.90;;
61962;SDS011;47927;42.646;23.096;2022-10-16T09:46:21;5.28;;;3.35;;
61962;SDS011;47927;42.646;23.096;2022-10-16T09:51:46;4.60;;;3.08;;
61962;SDS011;47927;42.646;23.096;2022-10-16T09:54:21;4.32;;;2.75;;
61962;SDS011;47927;42.646;23.096;2022-10-16T09:56:47;5.28;;;2.85;;
61962;SDS011;47927;42.646;23.096;2022-10-16T09:59:18;6.55;;;3.25;;
61962;SDS011;47927;42.646;23.096;2022-10-16T10:01:46;4.78;;;2.78;;
61962;SDS011;47927;42.646;23.096;2022-10-16T10:04:16;5.30;;;2.92;;
61962;SDS011;47927;42.646;23.096;2022-10-16T10:06:46;4.43;;;2.67;;
61962;SDS011;47927;42.646;23.096;2022-10-16T10:09:25;6.03;;;2.53;;
61962;SDS011;47927;42.646;23.096;2022-10-16T10:11:56;6.68;;;2.58;;
61962;SDS011;47927;42.646;23.096;2022-10-16T10:14:40;4.88;;;2.75;;
61962;SDS011;47927;42.646;23.096;2022-10-16T10:36:20;3.83;;;2.40;;
61962;SDS011;47927;42.646;23.096;2022-10-16T10:39:00;6.15;;;2.92;;
61962;SDS011;47927;42.646;23.096;2022-10-16T10:41:52;3.25;;;2.15;;
61962;SDS011;47927;42.646;23.096;2022-10-16T10:50:25;3.88;;;2.53;;
61962;SDS011;47927;42.646;23.096;2022-10-16T10:53:12;10.40;;;2.30;;
61962;SDS011;47927;42.646;23.096;2022-10-16T10:55:52;5.13;;;2.30;;
61962;SDS011;47927;42.646;23.096;2022-10-16T11:06:20;5.85;;;2.20;;
61962;SDS011;47927;42.646;23.096;2022-10-16T11:11:53;5.72;;;2.75;;
61962;SDS011;47927;42.646;23.096;2022-10-16T11:14:33;3.75;;;1.80;;
61962;SDS011;47927;42.646;23.096;2022-10-16T11:17:48;5.30;;;2.20;;
61962;SDS011;47927;42.646;23.096;2022-10-16T11:25:43;6.10;;;2.92;;
61962;SDS011;47927;42.646;23.096;2022-10-16T11:28:16;5.32;;;2.42;;
61962;SDS011;47927;42.646;23.096;2022-10-16T11:30:49;3.95;;;2.05;;
61962;SDS011;47927;42.646;23.096;2022-10-16T11:33:32;4.28;;;2.03;;
61962;SDS011;47927;42.646;23.096;2022-10-16T11:41:49;5.60;;;2.50;;
61962;SDS011;47927;42.646;23.096;2022-10-16T11:49:52;3.88;;;2.00;;
61962;SDS011;47927;42.646;23.096;2022-10-16T11:52:44;3.28;;;1.83;;
61962;SDS011;47927;42.646;23.096;2022-10-16T11:55:27;4.57;;;1.90;;
61962;SDS011;47927;42.646;23.096;2022-10-16T11:57:59;2.53;;;1.50;;
61962;SDS011;47927;42.646;23.096;2022-10-16T12:06:40;4.38;;;2.03;;
61962;SDS011;47927;42.646;23.096;2022-10-16T12:11:46;6.00;;;2.10;;
61962;SDS011;47927;42.646;23.096;2022-10-16T12:16:38;10.77;;;2.38;;
61962;SDS011;47927;42.646;23.096;2022-10-16T12:19:19;5.55;;;2.78;;
61962;SDS011;47927;42.646;23.096;2022-10-16T12:21:46;7.32;;;2.20;;
61962;SDS011;47927;42.646;23.096;2022-10-16T12:24:36;4.25;;;2.17;;
61962;SDS011;47927;42.646;23.096;2022-10-16T12:27:28;3.30;;;1.80;;
61962;SDS011;47927;42.646;23.096;2022-10-16T12:30:00;3.28;;;1.88;;
61962;SDS011;47927;42.646;23.096;2022-10-16T12:35:04;5.20;;;2.25;;
61962;SDS011;47927;42.646;23.096;2022-10-16T12:37:42;5.88;;;1.80;;
61962;SDS011;47927;42.646;23.096;2022-10-16T12:40:12;4.57;;;2.10;;
61962;SDS011;47927;42.646;23.096;2022-10-16T12:42:41;5.05;;;1.88;;
61962;SDS011;47927;42.646;23.096;2022-10-16T12:45:21;3.00;;;1.55;;
61962;SDS011;47927;42.646;23.096;2022-10-16T12:47:49;4.43;;;1.95;;
61962;SDS011;47927;42.646;23.096;2022-10-16T12:53:18;3.72;;;1.95;;
61962;SDS011;47927;42.646;23.096;2022-10-16T12:55:52;5.55;;;2.63;;
61962;SDS011;47927;42.646;23.096;2022-10-16T12:58:32;4.25;;;2.00;;
61962;SDS011;47927;42.646;23.096;2022-10-16T13:12:19;5.10;;;2.17;;
61962;SDS011;47927;42.646;23.096;2022-10-16T13:28:20;3.30;;;1.80;;
61962;SDS011;47927;42.646;23.096;2022-10-16T13:30:51;4.82;;;2.35;;
61962;SDS011;47927;42.646;23.096;2022-10-16T13:33:20;3.72;;;1.65;;
61962;SDS011;47927;42.646;23.096;2022-10-16T13:35:55;3.53;;;1.63;;
61962;SDS011;47927;42.646;23.096;2022-10-16T13:38:23;3.92;;;2.17;;
61962;SDS011;47927;42.646;23.096;2022-10-16T13:43:23;4.75;;;1.85;;
61962;SDS011;47927;42.646;23.096;2022-10-16T13:45:57;3.25;;;1.70;;
61962;SDS011;47927;42.646;23.096;2022-10-16T13:48:30;3.58;;;1.77;;
61962;SDS011;47927;42.646;23.096;2022-10-16T13:51:00;3.83;;;2.00;;
61962;SDS011;47927;42.646;23.096;2022-10-16T13:53:29;4.45;;;2.00;;
61962;SDS011;47927;42.646;23.096;2022-10-16T13:55:57;4.13;;;1.80;;
61962;SDS011;47927;42.646;23.096;2022-10-16T13:58:22;6.22;;;1.70;;
61962;SDS011;47927;42.646;23.096;2022-10-16T14:01:31;3.35;;;1.83;;
61962;SDS011;47927;42.646;23.096;2022-10-16T14:03:45;3.78;;;1.60;;
61962;SDS011;47927;42.646;23.096;2022-10-16T14:06:19;8.13;;;2.30;;
61962;SDS011;47927;42.646;23.096;2022-10-16T14:08:50;3.45;;;1.98;;
61962;SDS011;47927;42.646;23.096;2022-10-16T14:11:21;6.63;;;2.30;;
61962;SDS011;47927;42.646;23.096;2022-10-16T14:13:51;7.38;;;1.80;;
61962;SDS011;47927;42.646;23.096;2022-10-16T14:16:20;5.25;;;2.33;;
61962;SDS011;47927;42.646;23.096;2022-10-16T14:19:03;5.82;;;1.77;;
61962;SDS011;47927;42.646;23.096;2022-10-16T14:21:32;5.50;;;2.33;;
61962;SDS011;47927;42.646;23.096;2022-10-16T14:23:59;3.28;;;1.70;;
61962;SDS011;47927;42.646;23.096;2022-10-16T14:26:40;5.57;;;1.85;;
61962;SDS011;47927;42.646;23.096;2022-10-16T14:29:13;6.30;;;1.60;;
61962;SDS011;47927;42.646;23.096;2022-10-16T14:31:40;3.33;;;1.70;;
61962;SDS011;47927;42.646;23.096;2022-10-16T14:34:26;4.72;;;1.95;;
61962;SDS011;47927;42.646;23.096;2022-10-16T14:36:58;6.93;;;2.00;;
61962;SDS011;47927;42.646;23.096;2022-10-16T14:39:39;10.32;;;3.15;;
61962;SDS011;47927;42.646;23.096;2022-10-16T14:42:11;96.13;;;38.33;;
61962;SDS011;47927;42.646;23.096;2022-10-16T14:44:41;23.95;;;9.20;;
61962;SDS011;47927;42.646;23.096;2022-10-16T14:47:08;46.65;;;16.02;;
61962;SDS011;47927;42.646;23.096;2022-10-16T14:49:40;38.53;;;12.45;;
61962;SDS011;47927;42.646;23.096;2022-10-16T14:52:12;26.17;;;10.57;;
61962;SDS011;47927;42.646;23.096;2022-10-16T14:54:39;9.43;;;5.00;;
61962;SDS011;47927;42.646;23.096;2022-10-16T14:57:05;43.60;;;21.55;;
61962;SDS011;47927;42.646;23.096;2022-10-16T14:59:41;87.00;;;35.55;;
61962;SDS011;47927;42.646;23.096;2022-10-16T15:02:25;59.00;;;23.65;;
61962;SDS011;47927;42.646;23.096;2022-10-16T15:04:54;59.00;;;21.77;;
61962;SDS011;47927;42.646;23.096;2022-10-16T15:07:21;55.45;;;23.40;;
61962;SDS011;47927;42.646;23.096;2022-10-16T15:09:46;20.85;;;7.65;;
61962;SDS011;47927;42.646;23.096;2022-10-16T15:12:12;9.73;;;3.92;;
61962;SDS011;47927;42.646;23.096;2022-10-16T15:14:38;19.02;;;5.32;;
61962;SDS011;47927;42.646;23.096;2022-10-16T15:17:03;11.63;;;4.68;;
61962;SDS011;47927;42.646;23.096;2022-10-16T15:19:29;10.43;;;4.55;;
61962;SDS011;47927;42.646;23.096;2022-10-16T15:21:55;4.82;;;2.10;;
61962;SDS011;47927;42.646;23.096;2022-10-16T15:24:21;6.22;;;2.92;;
61962;SDS011;47927;42.646;23.096;2022-10-16T15:26:46;6.28;;;2.70;;
61962;SDS011;47927;42.646;23.096;2022-10-16T15:29:12;5.85;;;2.80;;
61962;SDS011;47927;42.646;23.096;2022-10-16T15:31:38;13.93;;;5.57;;
61962;SDS011;47927;42.646;23.096;2022-10-16T15:34:04;7.00;;;2.30;;
61962;SDS011;47927;42.646;23.096;2022-10-16T15:36:32;6.13;;;2.60;;
61962;SDS011;47927;42.646;23.096;2022-10-16T15:39:02;12.10;;;3.15;;
61962;SDS011;47927;42.646;23.096;2022-10-16T15:41:31;10.23;;;2.40;;
61962;SDS011;47927;42.646;23.096;2022-10-16T15:43:56;10.02;;;4.75;;
61962;SDS011;47927;42.646;23.096;2022-10-16T15:46:23;9.73;;;4.80;;
61962;SDS011;47927;42.646;23.096;2022-10-16T15:48:50;7.30;;;3.25;;
61962;SDS011;47927;42.646;23.096;2022-10-16T15:51:16;6.38;;;2.60;;
61962;SDS011;47927;42.646;23.096;2022-10-16T15:53:43;4.60;;;2.20;;
61962;SDS011;47927;42.646;23.096;2022-10-16T15:56:11;6.05;;;2.42;;
61962;SDS011;47927;42.646;23.096;2022-10-16T15:58:38;4.82;;;1.95;;
61962;SDS011;47927;42.646;23.096;2022-10-16T16:01:04;3.78;;;2.20;;
61962;SDS011;47927;42.646;23.096;2022-10-16T16:03:31;5.15;;;2.13;;
61962;SDS011;47927;42.646;23.096;2022-10-16T16:05:57;7.93;;;2.10;;
61962;SDS011;47927;42.646;23.096;2022-10-16T16:08:23;5.25;;;2.40;;
61962;SDS011;47927;42.646;23.096;2022-10-16T16:11:02;4.32;;;2.00;;
61962;SDS011;47927;42.646;23.096;2022-10-16T16:13:39;5.97;;;2.40;;
61962;SDS011;47927;42.646;23.096;2022-10-16T16:16:09;6.30;;;2.08;;
61962;SDS011;47927;42.646;23.096;2022-10-16T16:18:36;3.22;;;1.80;;
61962;SDS011;47927;42.646;23.096;2022-10-16T16:21:02;3.92;;;1.52;;
61962;SDS011;47927;42.646;23.096;2022-10-16T16:23:28;4.18;;;1.98;;
61962;SDS011;47927;42.646;23.096;2022-10-16T16:26:04;4.38;;;2.20;;
61962;SDS011;47927;42.646;23.096;2022-10-16T16:28:31;7.90;;;2.05;;
61962;SDS011;47927;42.646;23.096;2022-10-16T16:30:57;8.15;;;2.35;;
61962;SDS011;47927;42.646;23.096;2022-10-16T16:33:24;4.28;;;2.15;;
61962;SDS011;47927;42.646;23.096;2022-10-16T16:35:49;5.20;;;2.67;;
61962;SDS011;47927;42.646;23.096;2022-10-16T16:38:15;10.05;;;3.00;;
61962;SDS011;47927;42.646;23.096;2022-10-16T16:40:40;9.32;;;2.60;;
61962;SDS011;47927;42.646;23.096;2022-10-16T16:43:06;9.77;;;3.90;;
61962;SDS011;47927;42.646;23.096;2022-10-16T16:45:34;9.52;;;3.22;;
61962;SDS011;47927;42.646;23.096;2022-10-16T16:48:01;7.63;;;2.92;;
61962;SDS011;47927;42.646;23.096;2022-10-16T16:50:26;8.77;;;2.95;;
61962;SDS011;47927;42.646;23.096;2022-10-16T16:52:52;5.82;;;2.72;;
61962;SDS011;47927;42.646;23.096;2022-10-16T16:55:17;4.82;;;2.17;;
61962;SDS011;47927;42.646;23.096;2022-10-16T16:57:43;5.93;;;2.47;;
61962;SDS011;47927;42.646;23.096;2022-10-16T17:00:09;5.03;;;2.28;;
61962;SDS011;47927;42.646;23.096;2022-10-16T17:02:35;6.30;;;2.25;;
61962;SDS011;47927;42.646;23.096;2022-10-16T17:05:00;3.50;;;1.90;;
61962;SDS011;47927;42.646;23.096;2022-10-16T17:07:26;5.53;;;1.85;;
61962;SDS011;47927;42.646;23.096;2022-10-16T17:09:52;7.75;;;2.67;;
61962;SDS011;47927;42.646;23.096;2022-10-16T17:12:18;4.20;;;2.60;;